Latest Weather Observations for Redcliffe

IDQ60801

Issued at 6:32 am EST Monday 1 May 2017 (issued every 30 minutes, with the page automatically refreshed every 10 minutes)

About weather observations | Map of weather stations | Latest weather observations for QLD | Other Formats
Station Details ID: 040958 Name: REDCLIFFE Lat: -27.22 Lon: 153.09 Height: 12.6 m
Data from the previous 72 hours. | See also: Recent months at Redcliffe
Date/Time
EST
Temp
°C
App
Temp
°C
Dew
Point
°C
Rel
Hum
%
Delta-T
°C
Wind Press
QNH
hPa
Press
MSL
hPa
Rain since
9am
mm
Dir  Spd
km/h
Gust
km/h
Spd
kts
Gust
kts
01/06:30am 15.9 14.2 12.5 80 1.9 SW 13 19 7 10 1021.0 1020.9 0.0
01/06:00am 16.3 14.7 12.7 79 2.0 SW 13 17 7 9 1020.8 1020.7 0.0
01/05:30am 16.6 15.0 12.8 78 2.1 SW 13 17 7 9 1020.3 1020.2 0.0
01/05:00am 16.5 15.0 13.0 80 1.9 SW 13 19 7 10 1020.0 1019.9 0.0
01/04:30am 16.2 14.7 13.1 82 1.7 SW 13 17 7 9 1019.7 1019.6 0.0
01/04:00am 16.3 14.8 13.0 81 1.8 SW 13 15 7 8 1019.5 1019.4 0.0
01/03:30am 16.3 14.3 12.8 80 1.9 SW 15 20 8 11 1019.3 1019.2 0.0
01/03:00am 16.4 14.5 12.9 80 1.9 SW 15 19 8 10 1019.6 1019.5 0.0
01/02:30am 16.5 15.0 13.2 81 1.8 SW 13 19 7 10 1019.7 1019.6 0.0
01/02:00am 16.6 15.1 13.1 80 1.9 SW 13 17 7 9 1020.0 1019.9 0.0
01/01:30am 17.0 15.6 13.3 79 2.1 SW 13 17 7 9 1020.2 1020.1 0.0
01/01:00am 17.3 16.0 13.8 80 2.0 SW 13 20 7 11 1020.4 1020.3 0.0
01/12:30am 16.8 15.5 13.7 82 1.8 SW 13 17 7 9 1020.4 1020.3 0.0
01/12:00am 16.5 15.6 13.6 83 1.6 SSW 11 17 6 9 1020.5 1020.4 0.0
 
Date/Time
EST
Temp
°C
App
Temp
°C
Dew
Point
°C
Rel
Hum
%
Delta-T
°C
Wind Press
QNH
hPa
Press
MSL
hPa
Rain since
9am
mm
Dir  Spd
km/h
Gust
km/h
Spd
kts
Gust
kts
30/11:30pm 16.9 15.6 13.8 82 1.8 SW 13 17 7 9 1020.6 1020.5 0.0
30/11:00pm 17.4 16.2 14.1 81 1.9 SSW 13 15 7 8 1020.4 1020.3 0.0
30/10:30pm 17.9 17.2 14.2 79 2.1 SSW 11 13 6 7 1020.5 1020.4 0.0
30/10:00pm 18.4 17.8 14.5 78 2.2 SSW 11 15 6 8 1020.9 1020.8 0.0
30/09:30pm 18.8 18.2 14.7 77 2.4 S 11 15 6 8 1021.1 1021.0 0.0
30/09:00pm 19.1 16.3 14.4 74 2.7 SSE 22 26 12 14 1021.0 1020.9 0.0
30/08:30pm 20.2 17.9 14.6 70 3.3 SSE 20 26 11 14 1021.0 1020.9 0.0
30/08:00pm 21.0 18.0 14.9 68 3.6 SE 24 28 13 15 1020.7 1020.6 0.0
30/07:30pm 21.3 18.3 14.7 66 3.9 SE 24 30 13 16 1020.4 1020.3 0.0
30/07:00pm 21.1 18.6 14.0 64 4.1 SE 20 28 11 15 1020.2 1020.1 0.0
30/06:30pm 21.2 17.9 13.9 63 4.2 SE 24 28 13 15 1019.8 1019.7 0.0
30/06:00pm 21.3 17.1 13.5 61 4.5 SE 28 32 15 17 1019.6 1019.5 0.0
30/05:30pm 21.5 17.2 13.2 59 4.8 SE 28 32 15 17 1019.4 1019.3 0.0
30/05:00pm 21.7 18.4 13.9 61 4.5 SE 24 28 13 15 1019.1 1019.0 0.0
30/04:30pm 22.1 19.0 13.5 58 5.0 ESE 22 28 12 15 1018.9 1018.8 0.0
30/04:00pm 22.3 18.8 13.4 57 5.1 SE 24 30 13 16 1018.6 1018.5 0.0
30/03:30pm 22.4 19.0 13.7 58 5.0 SE 24 30 13 16 1018.5 1018.4 0.0
30/03:00pm 22.7 18.8 14.3 59 4.9 SE 28 33 15 18 1018.3 1018.2 0.0
30/02:30pm 22.8 18.0 14.1 58 5.1 SE 32 35 17 19 1018.4 1018.3 0.0
30/02:00pm 23.0 18.2 14.0 57 5.3 SE 32 35 17 19 1018.3 1018.2 0.0
30/01:30pm 22.9 18.8 13.9 57 5.3 SE 28 32 15 17 1018.3 1018.2 0.0
30/01:00pm 23.8 21.2 14.8 57 5.3 SE 22 28 12 15 1018.6 1018.5 0.0
30/12:30pm 22.9 21.6 13.7 56 5.4 SE 13 17 7 9 1019.0 1018.9 0.0
30/12:00pm 23.8 22.5 13.6 52 5.9 SE 13 15 7 8 1019.5 1019.4 0.0
30/11:30am 23.4 21.4 13.8 54 5.6 SSE 17 20 9 11 1020.0 1019.9 0.0
30/11:00am 23.6 21.6 13.8 54 5.7 S 17 22 9 12 1020.6 1020.5 0.0
30/10:30am 23.5 20.9 13.7 54 5.7 S 20 26 11 14 1020.8 1020.7 0.0
30/10:00am 22.7 20.0 12.9 54 5.6 SSW 19 28 10 15 1020.9 1020.8 0.0
30/09:30am 22.3 20.0 13.1 56 5.3 S 17 22 9 12 1020.8 1020.7 0.0
30/09:00am 21.6 19.4 13.2 59 4.8 S 17 22 9 12 1020.7 1020.6 0.0
30/08:30am 19.7 17.4 12.9 65 3.8 SSW 17 26 9 14 1020.8 1020.7 0.0
30/08:00am 18.2 15.9 13.1 72 2.9 SW 17 24 9 13 1020.5 1020.4 0.0
30/07:30am 16.3 13.9 12.7 79 2.0 SW 17 22 9 12 1020.3 1020.2 0.0
30/07:00am 15.3 13.6 12.4 83 1.6 SW 13 17 7 9 1020.1 1020.0 0.0
30/06:30am 14.8 13.1 12.3 85 1.4 SW 13 17 7 9 1019.8 1019.7 0.0
30/06:00am 14.8 12.7 12.3 85 1.4 SW 15 19 8 10 1019.3 1019.2 0.0
30/05:30am 15.0 13.3 12.3 84 1.5 SW 13 17 7 9 1019.0 1018.9 0.0
30/05:00am 15.0 12.6 12.5 85 1.4 SW 17 22 9 12 1018.7 1018.6 0.0
30/04:30am 15.2 13.1 12.5 84 1.5 SW 15 19 8 10 1018.6 1018.5 0.0
30/04:00am 15.3 13.3 12.8 85 1.4 SW 15 19 8 10 1018.5 1018.4 0.0
30/03:30am 15.4 13.9 13.1 86 1.3 SW 13 17 7 9 1018.4 1018.3 0.0
30/03:00am 15.4 13.8 12.9 85 1.4 SW 13 19 7 10 1018.2 1018.1 0.0
30/02:30am 15.5 14.4 13.0 85 1.4 SW 11 13 6 7 1018.3 1018.2 0.0
30/02:00am 15.7 14.6 13.2 85 1.4 SW 11 13 6 7 1018.4 1018.3 0.0
30/01:30am 15.8 14.4 13.5 86 1.3 SW 13 13 7 7 1018.7 1018.6 0.0
30/01:00am 15.9 14.5 13.4 85 1.4 WSW 13 15 7 8 1018.9 1018.8 0.0
30/12:30am 16.0 15.0 13.5 85 1.4 SW 11 15 6 8 1018.9 1018.8 0.0
30/12:00am 16.3 15.7 13.6 84 1.5 WSW 9 13 5 7 1019.2 1019.1 0.0
 
Date/Time
EST
Temp
°C
App
Temp
°C
Dew
Point
°C
Rel
Hum
%
Delta-T
°C
Wind Press
QNH
hPa
Press
MSL
hPa
Rain since
9am
mm
Dir  Spd
km/h
Gust
km/h
Spd
kts
Gust
kts
29/11:30pm 16.4 15.4 13.5 83 1.6 SW 11 13 6 7 1019.2 1019.1 0.0
29/11:00pm 16.8 15.5 13.7 82 1.7 WSW 13 13 7 7 1019.1 1019.0 0.0
29/10:30pm 17.3 16.1 14.0 81 1.9 WSW 13 17 7 9 1019.1 1019.0 0.0
29/10:00pm 17.9 16.4 14.2 79 2.1 SSE 15 19 8 10 1019.2 1019.1 0.0
29/09:30pm 18.4 16.9 14.3 77 2.4 SSE 15 17 8 9 1019.1 1019.0 0.0
29/09:00pm 19.9 17.7 14.5 71 3.1 SE 19 20 10 11 1019.1 1019.0 0.0
29/08:30pm 20.5 18.3 14.8 70 3.3 SE 20 24 11 13 1018.9 1018.8 0.0
29/08:00pm 20.6 18.4 14.5 68 3.6 ESE 19 22 10 12 1018.8 1018.7 0.0
29/07:30pm 20.8 18.5 14.2 66 3.8 SE 19 22 10 12 1018.7 1018.6 0.0
29/07:00pm 20.9 18.5 14.3 66 3.8 SE 20 24 11 13 1018.6 1018.5 0.0
29/06:30pm 21.1 18.6 14.0 64 4.1 SE 20 24 11 13 1018.6 1018.5 0.0
29/06:00pm 21.3 18.8 14.0 63 4.2 SE 20 26 11 14 1018.2 1018.1 0.0
29/05:30pm 21.3 18.8 14.0 63 4.2 ESE 20 26 11 14 1017.9 1017.8 0.0
29/05:00pm 21.7 19.1 13.9 61 4.5 ESE 20 26 11 14 1017.6 1017.5 0.0
29/04:30pm 22.2 19.6 11.9 52 5.8 E 17 19 9 10 1017.4 1017.3 0.0
29/04:00pm 22.9 20.5 10.0 44 7.0 E 13 15 7 8 1017.1 1017.0 0.0
29/03:30pm 23.1 21.2 10.5 45 6.9 E 11 13 6 7 1016.9 1016.8 0.0
29/03:00pm 23.3 20.9 10.0 43 7.3 E 13 15 7 8 1016.8 1016.7 0.0
29/02:30pm 23.4 21.2 10.8 45 7.0 E 13 15 7 8 1017.1 1017.0 0.0
29/02:00pm 24.3 22.0 9.1 38 8.2 ESE 11 13 6 7 1017.3 1017.2 0.0
29/01:30pm 23.8 21.2 9.4 40 7.8 ESE 13 13 7 7 1017.4 1017.3 0.0
29/01:00pm 24.3 22.1 9.5 39 8.0 SE 11 15 6 8 1017.8 1017.7 0.0
29/12:30pm 24.2 21.2 9.4 39 8.0 S 15 19 8 10 1018.2 1018.1 0.0
29/12:00pm 24.3 21.1 9.8 40 7.9 S 17 22 9 12 1018.5 1018.4 0.0
29/11:30am 23.9 20.4 10.2 42 7.5 S 19 24 10 13 1019.0 1018.9 0.0
29/11:00am 23.6 19.7 9.6 41 7.6 S 20 28 11 15 1019.3 1019.2 0.0
29/10:30am 23.0 19.5 10.1 44 7.1 SSW 19 26 10 14 1019.6 1019.5 0.0
29/10:00am 22.6 19.1 10.1 45 6.8 SSW 19 30 10 16 1019.9 1019.8 0.0
29/09:30am 21.7 18.1 9.9 47 6.4 SSW 19 28 10 15 1020.0 1019.9 0.0
29/09:00am 21.0 17.5 10.2 50 5.8 SSW 19 28 10 15 1019.8 1019.7 0.0
29/08:30am 19.4 15.7 9.3 52 5.3 SSW 19 26 10 14 1019.7 1019.6 0.0
29/08:00am 18.5 15.2 9.6 56 4.7 SW 17 22 9 12 1019.5 1019.4 0.0
29/07:30am 17.2 13.9 9.4 60 4.1 SW 17 24 9 13 1019.2 1019.1 0.0
29/07:00am 16.0 13.1 9.7 66 3.3 SW 15 20 8 11 1018.7 1018.6 0.0
29/06:30am 16.0 12.6 9.2 64 3.5 SSW 17 24 9 13 1018.0 1017.9 0.0
29/06:00am 16.2 12.4 8.9 62 3.7 SSW 19 26 10 14 1017.7 1017.6 0.0
29/05:30am 16.6 12.9 9.3 62 3.8 SSW 19 26 10 14 1017.3 1017.2 0.0
29/05:00am 16.5 12.9 9.7 64 3.5 SSW 19 24 10 13 1017.0 1016.9 0.0
29/04:30am 16.3 13.5 9.9 66 3.4 SSW 15 24 8 13 1016.7 1016.6 0.0
29/04:00am 16.5 13.8 10.4 67 3.2 SW 15 20 8 11 1016.8 1016.7 0.0
29/03:30am 16.8 14.4 10.2 65 3.5 SW 13 24 7 13 1016.7 1016.6 0.0
29/03:00am 17.2 14.2 10.6 65 3.5 SSW 17 28 9 15 1016.6 1016.5 0.0
29/02:30am 17.4 14.4 10.5 64 3.7 SSW 17 28 9 15 1016.7 1016.6 0.0
29/02:00am 17.7 14.2 10.8 64 3.7 SSW 20 32 11 17 1016.9 1016.8 0.0
29/01:30am 17.9 14.4 11.0 64 3.7 SSW 20 32 11 17 1017.0 1016.9 0.0
29/01:00am 18.2 15.4 11.3 64 3.7 SSW 17 24 9 13 1017.3 1017.2 0.0
29/12:30am 18.6 15.3 11.7 64 3.8 SSW 20 30 11 16 1017.5 1017.4 0.0
29/12:00am 18.5 15.1 11.3 63 3.9 SSW 20 32 11 17 1017.3 1017.2 0.0
 
Date/Time
EST
Temp
°C
App
Temp
°C
Dew
Point
°C
Rel
Hum
%
Delta-T
°C
Wind Press
QNH
hPa
Press
MSL
hPa
Rain since
9am
mm
Dir  Spd
km/h
Gust
km/h
Spd
kts
Gust
kts
28/11:30pm 18.9 15.8 11.5 62 4.1 SSW 19 30 10 16 1017.6 1017.5 0.0
28/11:00pm 19.1 15.8 11.7 62 4.1 SSW 20 30 11 16 1017.7 1017.6 0.0
28/10:30pm 19.1 15.9 11.9 63 4.0 SSW 20 32 11 17 1017.8 1017.7 0.0
28/10:00pm 18.9 15.8 11.7 63 4.0 SW 19 28 10 15 1017.8 1017.7 0.0
28/09:30pm 19.1 15.8 11.7 62 4.1 SW 20 30 11 16 1017.9 1017.8 0.0
28/09:00pm 19.2 16.6 12.0 63 4.0 SSW 17 24 9 13 1017.7 1017.6 0.0
28/08:30pm 19.0 16.3 11.8 63 4.0 SSW 17 22 9 12 1017.3 1017.2 0.0
28/08:00pm 19.4 16.7 11.7 61 4.2 SSW 17 22 9 12 1017.3 1017.2 0.0
28/07:30pm 19.6 16.9 11.6 60 4.4 SSW 17 26 9 14 1017.1 1017.0 0.0
28/07:00pm 20.3 17.1 11.8 58 4.7 SSW 20 32 11 17 1016.8 1016.7 0.0
28/06:30pm 20.7 17.4 11.6 56 5.0 SSW 20 28 11 15 1016.5 1016.4 0.0
28/06:00pm 20.7 17.5 11.3 55 5.2 SSW 19 26 10 14 1016.1 1016.0 0.0
28/05:30pm 21.0 17.6 11.1 53 5.5 SSW 20 28 11 15 1015.6 1015.5 0.0
28/05:00pm 21.7 17.9 11.1 51 5.9 SSW 22 33 12 18 1015.3 1015.2 0.0
28/04:30pm 22.9 19.6 11.6 49 6.3 SSW 20 28 11 15 1015.1 1015.0 0.0
28/04:00pm 22.5 19.2 10.9 48 6.4 S 19 30 10 16 1014.8 1014.7 0.0
28/03:30pm 22.7 19.7 10.5 46 6.7 SSW 17 22 9 12 1014.6 1014.5 0.0
28/03:00pm 22.9 20.5 11.3 48 6.5 SSE 15 17 8 9 1014.5 1014.4 0.0
28/02:30pm 22.7 20.2 11.1 48 6.4 SE 15 17 8 9 1014.3 1014.2 0.0
28/02:00pm 23.3 20.3 9.3 41 7.6 SE 15 20 8 11 1014.3 1014.2 0.0
28/01:30pm 23.2 19.6 9.9 43 7.3 S 19 28 10 15 1014.2 1014.1 0.0
28/01:00pm 23.8 20.8 9.4 40 7.8 S 15 24 8 13 1014.6 1014.5 0.0
28/12:30pm 23.2 18.9 9.2 41 7.5 S 22 30 12 16 1015.0 1014.9 0.0
28/12:00pm 22.5 17.9 8.2 40 7.5 S 22 30 12 16 1015.0 1014.9 0.0
28/11:30am 22.5 18.4 8.6 41 7.4 SSW 20 28 11 15 1015.6 1015.5 0.0
28/11:00am 22.4 17.9 8.5 41 7.3 SSW 22 28 12 15 1016.0 1015.9 0.0
28/10:30am 22.1 18.1 8.2 41 7.3 SSW 19 26 10 14 1016.3 1016.2 0.0
28/10:00am 21.0 16.6 7.6 42 6.9 SSW 20 28 11 15 1016.7 1016.6 0.0
28/09:30am 19.7 15.7 8.4 48 5.9 SW 19 26 10 14 1016.9 1016.8 0.0
28/09:00am 17.9 14.1 7.6 51 5.2 SW 17 26 9 14 1017.0 1016.9 0.0
28/08:30am 16.6 13.1 7.3 54 4.6 SW 15 26 8 14 1017.1 1017.0 0.0
28/08:00am 15.7 12.3 7.5 58 4.1 WSW 15 20 8 11 1016.8 1016.7 0.0
28/07:30am 14.3 10.9 7.6 64 3.3 WSW 15 20 8 11 1016.4 1016.3 0.0
28/07:00am 13.7 10.2 7.2 65 3.2 W 15 20 8 11 1016.1 1016.0 0.0

Other Formats:

Comma delimited format used in spreadsheet applications
http://www.bom.gov.au/fwo/IDQ60801/IDQ60801.95591.axf

JavaScript Object Notation format (JSON) in row-major order
http://www.bom.gov.au/fwo/IDQ60801/IDQ60801.95591.json